首页
METAR-TAF:

METAR-TAF

机场 :

因斯布魯克機場

因斯布鲁克, 奥地利

纬度: 47-16N, 经度: 011-21E, 海拔: 581米

当前天气观测

该预报发布于39分钟前的08:20 UTC
风速2节,风向多变
温度 8°C
湿度 57%
气压 1015 hPa
能见度10公里或以上
少量云层高于6000英尺

METAR: LOWI 030820Z VRB02KT 9999 FEW060 08/M00 Q1015 NOSIG

时间: 10:59 (08:59 UTC)

预报

该预报发布于3小时和44分钟前的05:15 UTC
预报有效从03日的 06点(UTC)到 04日的 06点(UTC)
风速3节,风向西
能见度10公里或以上
少量云层高于6000英尺
多云层高于9000英尺
短暂存在
从 03日的 12点(UTC)到 03日的 18点(UTC)
风速10节,风向

TAF: LOWI 030515Z 0306/0406 27003KT 9999 FEW060 BKN090 TX15/0314Z TN01/0405Z TEMPO 0312/0318 09010KT

超过4000个机场的气象观测和天气预报(METAR&TAF报告)。

可查询的气象台以黄色和红色小点在地图上表示。

将鼠标移到小点上方,可查看气象台名称。

然后点击查看天气观测和预报。

如需切换地图:点击带黑十字的绿色按钮放大地图;点击带横线的绿色按钮缩小地图;或者点击绿色箭头查看邻近地区的地图。


METAR-TAF: